createdAt,value
2022-09-21T00:01:18.040Z,6.47
2022-09-21T00:03:47.632Z,6.51
2022-09-21T00:06:18.647Z,6.51
2022-09-21T00:08:46.283Z,6.51
2022-09-21T00:11:21.087Z,6.50
2022-09-21T00:13:47.827Z,6.51
2022-09-21T00:16:17.000Z,6.53
2022-09-21T00:18:43.962Z,6.51
2022-09-21T00:21:13.325Z,6.55
2022-09-21T00:23:40.563Z,6.51
2022-09-21T00:26:16.486Z,6.51
2022-09-21T00:28:44.634Z,6.52
2022-09-21T00:31:14.463Z,6.55
2022-09-21T00:33:42.421Z,6.56
2022-09-21T00:36:11.264Z,6.60
2022-09-21T00:38:38.381Z,6.61
2022-09-21T00:41:06.875Z,6.64
2022-09-21T00:43:35.507Z,6.63
2022-09-21T00:46:14.140Z,6.67
2022-09-21T00:48:41.213Z,6.64
2022-09-21T00:51:09.177Z,6.60
2022-09-21T00:53:38.574Z,6.62
2022-09-21T00:56:06.768Z,6.63
2022-09-21T00:58:40.748Z,6.66
2022-09-21T01:01:07.559Z,6.65
2022-09-21T01:03:34.468Z,6.63
2022-09-21T01:06:01.105Z,6.56
2022-09-21T01:08:28.484Z,6.55
2022-09-21T01:11:17.775Z,6.55
2022-09-21T01:13:50.509Z,6.52
2022-09-21T01:16:27.105Z,6.53
2022-09-21T01:19:33.829Z,6.54
2022-09-21T01:22:27.765Z,6.53
2022-09-21T01:25:24.261Z,6.55
2022-09-21T01:27:57.425Z,6.58
2022-09-21T01:30:24.921Z,6.55
2022-09-21T01:33:13.961Z,6.51
2022-09-21T01:35:50.692Z,6.55
2022-09-21T01:38:27.313Z,6.56
2022-09-21T01:41:02.677Z,6.61
2022-09-21T01:43:43.756Z,6.63
2022-09-21T01:46:15.698Z,6.64
2022-09-21T01:48:46.577Z,6.67
2022-09-21T01:51:17.827Z,6.67
2022-09-21T01:53:59.285Z,6.69
2022-09-21T01:56:33.624Z,6.71
2022-09-21T01:59:09.695Z,6.65
2022-09-21T02:01:43.574Z,6.61
2022-09-21T02:04:11.955Z,6.61
2022-09-21T02:06:46.190Z,6.60
2022-09-21T02:09:13.403Z,6.60
2022-09-21T02:11:43.130Z,6.61
2022-09-21T02:14:13.057Z,6.60
2022-09-21T02:16:42.161Z,6.58
2022-09-21T02:19:26.896Z,6.54
2022-09-21T02:22:29.284Z,6.46
2022-09-21T02:25:03.989Z,6.47
2022-09-21T02:28:00.749Z,6.43
2022-09-21T02:30:27.473Z,6.42
2022-09-21T02:33:14.765Z,6.38
2022-09-21T02:35:58.744Z,6.40
2022-09-21T02:38:41.172Z,6.37
2022-09-21T02:41:28.385Z,6.36
2022-09-21T02:44:33.736Z,6.36
2022-09-21T02:47:03.033Z,6.30
2022-09-21T02:49:36.083Z,6.27
2022-09-21T02:52:08.579Z,6.29
2022-09-21T02:54:38.175Z,6.30
2022-09-21T02:57:06.062Z,6.32
2022-09-21T02:59:33.017Z,6.33
2022-09-21T03:01:59.887Z,6.35
2022-09-21T03:04:27.994Z,6.32
2022-09-21T03:06:54.684Z,6.32
2022-09-21T03:09:24.253Z,6.35
2022-09-21T03:11:51.676Z,6.37
2022-09-21T03:14:19.259Z,6.36
2022-09-21T03:16:46.028Z,6.37
2022-09-21T03:19:12.675Z,6.37
2022-09-21T03:21:43.737Z,6.38
2022-09-21T03:24:11.136Z,6.36
2022-09-21T03:26:37.984Z,6.34
2022-09-21T03:29:05.205Z,6.36
2022-09-21T03:31:32.425Z,6.36
2022-09-21T03:33:59.424Z,6.40
2022-09-21T03:36:26.042Z,6.27
2022-09-21T03:38:52.607Z,6.26
2022-09-21T03:41:19.506Z,6.21
2022-09-21T03:43:46.065Z,6.18
2022-09-21T03:46:12.634Z,6.18
2022-09-21T03:48:40.747Z,6.17
2022-09-21T03:51:07.314Z,6.08
2022-09-21T03:53:33.947Z,6.13
2022-09-21T03:56:00.843Z,6.13
2022-09-21T03:58:27.432Z,6.13
2022-09-21T04:00:54.548Z,6.16
2022-09-21T04:03:21.136Z,6.16
2022-09-21T04:05:47.695Z,6.18
2022-09-21T04:08:14.278Z,6.14
2022-09-21T04:10:42.727Z,6.09
2022-09-21T04:13:12.429Z,6.07
2022-09-21T04:15:39.169Z,5.98
2022-09-21T04:18:06.027Z,5.98
2022-09-21T04:20:32.593Z,5.97
2022-09-21T04:22:59.912Z,5.98
2022-09-21T04:25:26.641Z,5.98
2022-09-21T04:27:53.225Z,5.95
2022-09-21T04:30:19.837Z,5.92
2022-09-21T04:32:46.605Z,5.91
2022-09-21T04:35:13.131Z,5.87
2022-09-21T04:37:39.766Z,5.86
2022-09-21T04:40:07.661Z,5.87
2022-09-21T04:42:34.484Z,5.88
2022-09-21T04:45:01.126Z,5.82
2022-09-21T04:47:30.617Z,5.79
2022-09-21T04:49:57.363Z,5.67
2022-09-21T04:52:23.966Z,5.65
2022-09-21T04:54:51.161Z,5.64
2022-09-21T04:57:17.775Z,5.62
2022-09-21T04:59:44.341Z,5.58
2022-09-21T05:02:10.918Z,5.52
2022-09-21T05:04:37.503Z,5.48
2022-09-21T05:07:04.270Z,5.52
2022-09-21T05:09:51.132Z,5.54
2022-09-21T05:12:17.702Z,5.51
2022-09-21T05:14:45.027Z,5.49
2022-09-21T05:17:12.854Z,5.47
2022-09-21T05:19:40.195Z,5.53
2022-09-21T05:22:07.003Z,5.52
2022-09-21T05:24:33.575Z,5.49
2022-09-21T05:27:00.532Z,5.41
2022-09-21T05:29:27.407Z,5.28
2022-09-21T05:32:12.898Z,5.24
2022-09-21T05:34:45.115Z,5.25
2022-09-21T05:37:38.000Z,5.32
2022-09-21T05:40:06.350Z,5.34
2022-09-21T05:42:33.483Z,5.37
2022-09-21T05:45:00.294Z,5.46
2022-09-21T05:47:40.758Z,5.44
2022-09-21T06:10:00.219Z,5.16
2022-09-21T06:12:26.746Z,5.16
2022-09-21T06:27:10.137Z,5.02
2022-09-21T06:29:36.711Z,5.08
2022-09-21T06:32:04.776Z,5.15
2022-09-21T06:34:31.550Z,5.25
2022-09-21T06:36:58.152Z,5.30
2022-09-21T06:39:24.758Z,5.36
2022-09-21T06:41:52.311Z,5.36
2022-09-21T06:44:18.879Z,5.28
2022-09-21T06:46:45.645Z,5.31
2022-09-21T06:49:12.206Z,5.38
2022-09-21T06:51:38.816Z,5.39
2022-09-21T06:54:05.986Z,5.38
2022-09-21T06:56:33.229Z,5.33
2022-09-21T06:58:59.803Z,5.41
2022-09-21T07:01:26.571Z,5.52
2022-09-21T07:03:54.095Z,5.59
2022-09-21T07:06:20.894Z,5.56
2022-09-21T07:11:34.771Z,5.69
2022-09-21T07:14:01.338Z,5.61
2022-09-21T07:16:28.199Z,5.56
2022-09-21T07:18:54.824Z,5.71
2022-09-21T07:21:21.901Z,5.78
2022-09-21T07:23:48.502Z,5.75
2022-09-21T07:26:15.593Z,5.69
2022-09-21T07:28:42.728Z,5.65
2022-09-21T07:31:13.957Z,5.76
2022-09-21T07:33:41.637Z,5.81
2022-09-21T07:36:11.947Z,5.95
2022-09-21T07:38:43.353Z,6.06
2022-09-21T07:41:12.913Z,5.98
2022-09-21T07:43:40.414Z,6.03
2022-09-21T07:46:09.398Z,6.01
2022-09-21T07:48:36.055Z,6.13
2022-09-21T07:51:06.260Z,6.12
2022-09-21T07:53:37.798Z,6.24
2022-09-21T07:56:09.723Z,6.26
2022-09-21T07:58:56.084Z,6.32
2022-09-21T08:01:24.005Z,6.55
2022-09-21T08:03:56.732Z,6.56
2022-09-21T08:06:25.350Z,6.59
2022-09-21T08:08:57.212Z,6.62
2022-09-21T08:11:26.133Z,6.75
2022-09-21T08:13:55.114Z,6.82
2022-09-21T08:16:22.642Z,6.86
2022-09-21T08:18:50.300Z,6.93
2022-09-21T08:21:17.620Z,7.07
2022-09-21T08:23:44.163Z,6.87
2022-09-21T08:26:18.882Z,6.82
2022-09-21T08:28:50.087Z,7.07
2022-09-21T08:31:19.656Z,7.16
2022-09-21T08:33:47.613Z,7.23
2022-09-21T08:36:14.431Z,7.39
2022-09-21T08:38:41.652Z,7.41
2022-09-21T08:41:52.949Z,7.60
2022-09-21T08:44:33.391Z,7.68
2022-09-21T08:47:24.532Z,7.80
2022-09-21T08:49:58.451Z,7.94
2022-09-21T08:52:26.439Z,7.94
2022-09-21T08:55:06.030Z,8.05
2022-09-21T08:57:34.440Z,8.15
2022-09-21T09:00:02.181Z,8.08
2022-09-21T09:02:54.919Z,8.22
2022-09-21T09:05:48.696Z,8.31
2022-09-21T09:08:37.118Z,8.43
2022-09-21T09:11:22.446Z,8.62
2022-09-21T09:13:52.072Z,8.64
2022-09-21T09:16:29.640Z,8.47
2022-09-21T09:19:28.901Z,8.52
2022-09-21T09:21:56.568Z,8.64
2022-09-21T09:24:25.874Z,8.83
2022-09-21T09:26:59.799Z,8.87
2022-09-21T09:29:38.216Z,9.06
2022-09-21T09:32:11.107Z,9.18
2022-09-21T09:34:49.414Z,9.24
2022-09-21T09:37:17.714Z,9.42
2022-09-21T09:39:55.225Z,9.57
2022-09-21T09:42:49.828Z,9.58
2022-09-21T09:45:40.873Z,9.79
2022-09-21T09:48:10.557Z,9.96
2022-09-21T09:50:41.563Z,10.07
2022-09-21T09:53:26.596Z,9.98
2022-09-21T09:55:56.314Z,10.14
2022-09-21T09:58:23.187Z,10.27
2022-09-21T10:00:54.819Z,10.29
2022-09-21T10:03:23.950Z,10.41
2022-09-21T10:05:50.888Z,10.57
2022-09-21T10:08:36.925Z,10.66
2022-09-21T10:11:04.097Z,10.53
2022-09-21T10:13:33.778Z,10.43
2022-09-21T10:16:26.848Z,10.36
2022-09-21T10:19:02.379Z,10.52
2022-09-21T10:21:51.842Z,10.59
2022-09-21T10:24:33.623Z,10.60
2022-09-21T10:27:14.420Z,10.54
2022-09-21T10:29:43.933Z,10.59
2022-09-21T10:32:14.932Z,10.62
2022-09-21T10:35:00.214Z,10.73
2022-09-21T10:37:30.141Z,10.87
2022-09-21T10:39:59.995Z,10.78
2022-09-21T10:42:35.473Z,10.95
2022-09-21T10:45:15.093Z,11.03
2022-09-21T10:47:48.393Z,11.04
2022-09-21T10:50:21.116Z,11.05
2022-09-21T10:52:48.940Z,11.17
2022-09-21T10:55:19.635Z,11.20
2022-09-21T10:57:47.916Z,11.37
2022-09-21T11:00:29.403Z,11.39
2022-09-21T11:03:00.925Z,11.51
2022-09-21T11:05:35.148Z,11.55
2022-09-21T11:08:07.826Z,11.65
2022-09-21T11:11:02.748Z,11.73
2022-09-21T11:13:50.630Z,11.84
2022-09-21T11:16:36.931Z,11.97
2022-09-21T11:19:32.177Z,12.06
2022-09-21T11:22:08.320Z,12.20
2022-09-21T11:24:56.065Z,12.30
2022-09-21T11:27:45.733Z,12.42
2022-09-21T11:30:15.974Z,12.56
2022-09-21T11:33:33.865Z,12.70
2022-09-21T11:36:14.828Z,12.74
2022-09-21T11:39:03.551Z,12.99
2022-09-21T11:41:40.993Z,13.14
2022-09-21T11:44:25.307Z,13.37
2022-09-21T11:47:17.239Z,13.49
2022-09-21T11:50:31.427Z,13.65
2022-09-21T11:53:30.626Z,13.90
2022-09-21T11:56:27.095Z,14.12
2022-09-21T11:59:07.075Z,14.23
2022-09-21T12:01:36.757Z,14.51
2022-09-21T12:04:03.654Z,14.67
2022-09-21T12:06:48.592Z,14.83
2022-09-21T12:09:36.993Z,15.22
2022-09-21T12:12:12.945Z,15.67
2022-09-21T12:15:03.054Z,16.02
2022-09-21T12:17:33.195Z,16.26
2022-09-21T12:20:24.380Z,16.28
2022-09-21T12:22:57.797Z,16.54
2022-09-21T12:25:31.756Z,16.72
2022-09-21T12:28:04.485Z,16.80
2022-09-21T12:30:34.153Z,17.19
2022-09-21T12:33:04.137Z,17.42
2022-09-21T12:35:55.962Z,17.49
2022-09-21T12:38:35.483Z,17.68
2022-09-21T12:41:21.564Z,18.02
2022-09-21T12:43:55.505Z,18.09
2022-09-21T12:46:25.958Z,17.92
2022-09-21T12:48:53.033Z,18.21
2022-09-21T12:51:36.265Z,18.45
2022-09-21T12:54:17.045Z,18.86
2022-09-21T12:56:59.732Z,18.95
2022-09-21T12:59:37.596Z,19.18
2022-09-21T13:02:19.936Z,19.25
2022-09-21T13:05:21.093Z,19.60
2022-09-21T13:08:12.328Z,19.34
2022-09-21T13:10:43.840Z,19.88
2022-09-21T13:13:38.645Z,19.83
2022-09-21T13:16:24.423Z,19.76
2022-09-21T13:19:04.881Z,20.10
2022-09-21T13:21:33.681Z,20.17
2022-09-21T13:24:02.894Z,19.93
2022-09-21T13:26:37.327Z,20.03
2022-09-21T13:29:18.983Z,20.08
2022-09-21T13:32:04.580Z,20.25
2022-09-21T13:34:39.504Z,20.18
2022-09-21T13:37:13.925Z,20.18
2022-09-21T13:40:02.332Z,20.06
2022-09-21T13:42:35.142Z,20.35
2022-09-21T13:45:06.692Z,20.29
2022-09-21T13:47:35.846Z,20.31
2022-09-21T13:50:12.622Z,20.38
2022-09-21T13:52:52.988Z,20.48
2022-09-21T13:55:28.585Z,20.47
2022-09-21T13:57:57.848Z,20.55
2022-09-21T14:00:42.942Z,20.80
2022-09-21T14:03:27.835Z,20.71
2022-09-21T14:06:07.746Z,20.28
2022-09-21T14:08:41.897Z,19.81
2022-09-21T14:11:17.774Z,20.06
2022-09-21T14:14:25.763Z,20.07
2022-09-21T14:16:52.357Z,20.39
2022-09-21T14:19:18.967Z,20.49
2022-09-21T14:22:04.102Z,20.04
2022-09-21T14:24:51.307Z,20.05
2022-09-21T14:27:26.068Z,19.93
2022-09-21T14:30:06.498Z,19.86
2022-09-21T14:32:44.038Z,20.04
2022-09-21T14:35:18.572Z,19.80
2022-09-21T14:37:52.140Z,19.70
2022-09-21T14:40:25.825Z,19.64
2022-09-21T14:42:57.360Z,19.62
2022-09-21T14:45:45.733Z,19.33
2022-09-21T14:48:51.137Z,19.38
2022-09-21T14:51:22.845Z,18.63
2022-09-21T14:54:14.870Z,19.02
2022-09-21T14:57:15.270Z,19.52
2022-09-21T14:59:50.656Z,19.36
2022-09-21T15:02:23.593Z,19.14
2022-09-21T15:05:08.325Z,19.22
2022-09-21T15:07:57.868Z,19.50
2022-09-21T15:10:44.608Z,19.09
2022-09-21T15:13:25.120Z,19.36
2022-09-21T15:16:18.015Z,19.29
2022-09-21T15:18:50.617Z,19.20
2022-09-21T15:21:24.346Z,19.08
2022-09-21T15:23:52.429Z,19.11
2022-09-21T15:26:40.904Z,18.86
2022-09-21T15:29:18.405Z,18.73
2022-09-21T15:31:45.640Z,18.56
2022-09-21T15:34:15.312Z,17.98
2022-09-21T15:36:44.026Z,17.79
2022-09-21T15:39:31.198Z,17.64
2022-09-21T15:42:09.985Z,17.49
2022-09-21T15:44:38.126Z,17.42
2022-09-21T15:47:11.307Z,17.34
2022-09-21T15:49:43.241Z,17.18
2022-09-21T15:52:32.001Z,17.03
2022-09-21T15:55:02.900Z,16.94
2022-09-21T15:57:38.395Z,16.88
2022-09-21T16:00:31.776Z,16.69
2022-09-21T16:03:06.474Z,16.48
2022-09-21T16:05:45.612Z,16.34
2022-09-21T16:08:41.733Z,16.16
2022-09-21T16:11:29.869Z,15.99
2022-09-21T16:14:29.917Z,15.88
2022-09-21T16:17:26.039Z,15.70
2022-09-21T16:19:53.961Z,15.63
2022-09-21T16:22:29.963Z,15.55
2022-09-21T16:25:01.124Z,15.38
2022-09-21T16:27:30.069Z,15.28
2022-09-21T16:29:58.614Z,15.25
2022-09-21T16:32:34.739Z,15.12
2022-09-21T16:35:31.429Z,14.96
2022-09-21T16:37:58.741Z,14.88
2022-09-21T16:40:29.122Z,14.81
2022-09-21T16:42:56.864Z,14.74
2022-09-21T16:45:29.734Z,14.65
2022-09-21T16:47:57.672Z,14.58
2022-09-21T16:50:24.603Z,14.48
2022-09-21T16:52:52.793Z,14.41
2022-09-21T16:55:20.142Z,14.37
2022-09-21T16:57:48.241Z,14.28
2022-09-21T17:00:22.237Z,14.22
2022-09-21T17:02:49.599Z,14.14
2022-09-21T17:05:19.463Z,14.04
2022-09-21T17:07:53.546Z,13.95
2022-09-21T17:10:21.604Z,13.89
2022-09-21T17:12:48.351Z,13.81
2022-09-21T17:15:15.189Z,13.64
2022-09-21T17:17:41.753Z,13.55
2022-09-21T17:20:20.483Z,13.45
2022-09-21T17:22:47.129Z,13.35
2022-09-21T17:25:13.814Z,13.25
2022-09-21T17:27:42.342Z,13.11
2022-09-21T17:30:13.797Z,13.01
2022-09-21T17:32:42.602Z,12.91
2022-09-21T17:35:33.185Z,12.77
2022-09-21T17:38:00.330Z,12.66
2022-09-21T17:40:27.508Z,12.58
2022-09-21T17:43:06.492Z,12.48
2022-09-21T17:45:42.470Z,12.31
2022-09-21T17:48:17.714Z,12.21
2022-09-21T17:50:44.564Z,12.10
2022-09-21T17:53:29.996Z,12.07
2022-09-21T17:56:15.105Z,11.95
2022-09-21T17:58:51.663Z,11.85
2022-09-21T18:01:33.930Z,11.74
2022-09-21T18:04:01.018Z,11.61
2022-09-21T18:06:28.514Z,11.54
2022-09-21T18:08:55.942Z,11.44
2022-09-21T18:11:44.227Z,11.32
2022-09-21T18:14:38.737Z,11.21
2022-09-21T18:17:32.399Z,11.06
2022-09-21T18:20:29.885Z,10.90
2022-09-21T18:23:09.890Z,10.83
2022-09-21T18:25:47.825Z,10.75
2022-09-21T18:28:58.111Z,10.61
2022-09-21T18:31:46.435Z,10.53
2022-09-21T18:34:43.542Z,10.42
2022-09-21T18:37:22.590Z,10.33
2022-09-21T18:40:04.407Z,10.24
2022-09-21T18:42:55.854Z,10.17
2022-09-21T18:45:27.730Z,10.09
2022-09-21T18:48:33.384Z,10.00
2022-09-21T18:51:17.305Z,9.94
2022-09-21T18:53:47.823Z,9.88
2022-09-21T18:56:15.211Z,9.80
2022-09-21T18:58:43.288Z,9.71
2022-09-21T19:01:14.472Z,9.65
2022-09-21T19:03:43.892Z,9.62
2022-09-21T19:06:10.741Z,9.57
2022-09-21T19:08:37.600Z,9.50
2022-09-21T19:11:14.476Z,9.42
2022-09-21T19:14:08.362Z,9.34
2022-09-21T19:16:47.934Z,9.28
2022-09-21T19:19:28.465Z,9.20
2022-09-21T19:22:04.376Z,9.09
2022-09-21T19:24:50.152Z,9.04
2022-09-21T19:27:23.120Z,8.99
2022-09-21T19:30:06.313Z,8.90
2022-09-21T19:32:43.709Z,8.86
2022-09-21T19:35:22.835Z,8.79
2022-09-21T19:37:52.102Z,8.75
2022-09-21T19:40:21.524Z,8.70
2022-09-21T19:43:04.917Z,8.59
2022-09-21T19:45:52.660Z,8.49
2022-09-21T19:48:26.589Z,8.48
2022-09-21T19:50:55.585Z,8.44
2022-09-21T19:53:41.538Z,8.43
2022-09-21T19:56:32.599Z,8.35
2022-09-21T19:59:17.950Z,8.30
2022-09-21T20:02:04.130Z,8.24
2022-09-21T20:05:01.417Z,8.18
2022-09-21T20:07:53.162Z,8.16
2022-09-21T20:10:40.916Z,8.09
2022-09-21T20:13:22.059Z,8.03
2022-09-21T20:16:03.933Z,7.91
2022-09-21T20:18:40.726Z,7.93
2022-09-21T20:21:16.142Z,7.86
2022-09-21T20:23:43.132Z,7.84
2022-09-21T20:26:24.821Z,7.79
2022-09-21T20:28:52.784Z,7.75
2022-09-21T20:31:24.734Z,7.72
2022-09-21T20:33:51.426Z,7.68
2022-09-21T20:36:18.062Z,7.67
2022-09-21T20:38:44.825Z,7.63
2022-09-21T20:41:12.728Z,7.59
2022-09-21T20:43:39.945Z,7.55
2022-09-21T20:46:06.954Z,7.51
2022-09-21T20:48:33.578Z,7.48
2022-09-21T20:51:01.639Z,7.41
2022-09-21T20:53:28.239Z,7.37
2022-09-21T20:55:57.115Z,7.36
2022-09-21T20:58:24.763Z,7.29
2022-09-21T21:00:57.907Z,7.23
2022-09-21T21:03:25.303Z,7.21
2022-09-21T21:05:51.838Z,7.17
2022-09-21T21:08:18.818Z,7.15
2022-09-21T21:10:48.906Z,7.12
2022-09-21T21:13:15.507Z,7.06
2022-09-21T21:15:42.121Z,7.03
2022-09-21T21:18:12.422Z,6.97
2022-09-21T21:20:39.681Z,6.94
2022-09-21T21:23:08.287Z,6.91
2022-09-21T21:25:35.272Z,6.87
2022-09-21T21:28:02.517Z,6.84
2022-09-21T21:30:29.127Z,6.81
2022-09-21T21:32:56.216Z,6.78
2022-09-21T21:35:22.855Z,6.74
2022-09-21T21:37:49.900Z,6.71
2022-09-21T21:40:16.865Z,6.69
2022-09-21T21:42:43.509Z,6.66
2022-09-21T21:45:10.584Z,6.64
2022-09-21T21:47:40.302Z,6.59
2022-09-21T21:50:08.535Z,6.55
2022-09-21T21:52:35.124Z,6.51
2022-09-21T21:55:02.376Z,6.44
2022-09-21T21:57:29.123Z,6.42
2022-09-21T21:59:55.698Z,6.39
2022-09-21T22:02:22.433Z,6.39
2022-09-21T22:04:49.134Z,6.37
2022-09-21T22:07:15.767Z,6.32
2022-09-21T22:09:42.371Z,6.28
2022-09-21T22:12:10.234Z,6.24
2022-09-21T22:14:36.821Z,6.22
2022-09-21T22:17:03.761Z,6.20
2022-09-21T22:19:30.339Z,6.17
2022-09-21T22:21:57.756Z,6.14
2022-09-21T22:24:24.380Z,6.11
2022-09-21T22:26:51.126Z,6.06
2022-09-21T22:29:17.953Z,6.01
2022-09-21T22:31:47.328Z,5.95
2022-09-21T22:34:15.003Z,5.92
2022-09-21T22:36:43.843Z,5.91
2022-09-21T22:39:11.416Z,5.88
2022-09-21T22:41:39.870Z,5.87
2022-09-21T22:44:06.908Z,5.81
2022-09-21T22:46:34.083Z,5.78
2022-09-21T22:49:01.079Z,5.76
2022-09-21T22:51:28.555Z,5.76
2022-09-21T22:53:55.472Z,5.73
2022-09-21T22:56:24.995Z,5.69
2022-09-21T22:58:52.959Z,5.65
2022-09-21T23:01:26.883Z,5.58
2022-09-21T23:03:59.252Z,5.59
2022-09-21T23:06:29.637Z,5.56
2022-09-21T23:08:57.787Z,5.54
2022-09-21T23:11:28.074Z,5.53
2022-09-21T23:13:56.161Z,5.53
2022-09-21T23:16:24.425Z,5.49
2022-09-21T23:18:51.754Z,5.46
2022-09-21T23:21:22.075Z,5.43
2022-09-21T23:23:49.094Z,5.40
2022-09-21T23:26:18.999Z,5.39
2022-09-21T23:28:51.038Z,5.35
2022-09-21T23:31:18.561Z,5.32
2022-09-21T23:33:56.604Z,5.27
2022-09-21T23:36:27.215Z,5.24
2022-09-21T23:38:54.300Z,5.23
2022-09-21T23:41:26.575Z,5.19
2022-09-21T23:43:53.844Z,5.17
2022-09-21T23:46:23.358Z,5.15
2022-09-21T23:48:50.262Z,5.08
2022-09-21T23:51:17.576Z,5.04
2022-09-21T23:53:45.189Z,5.02
2022-09-21T23:56:17.466Z,5.00
2022-09-21T23:58:44.346Z,4.98
